Terminal Aerodrome Forecast
Issued by NWS Cleveland, OH

Home | Current Version | Previous Version | Text Only | Print | Product List | Glossary Off
Versions: 1 2 3 4 5 6 7 8 9 10 11 12 13 14 15 16 17 18 19 20 21 22 23 24 25 26

000
FTUS41 KCLE 240500
TAFCLE
TAF
KCLE 240528Z 2406/2512 20006KT P6SM SKC
     FM241500 21014G22KT P6SM SCT040 BKN120
     FM242100 23018G28KT P6SM VCSH SCT025 OVC040
     FM250000 24015G25KT 3SM -SN SCT012 OVC020=

USA.gov is the U.S. government's official web portal to all federal, state and local government web resources and services.